sensor_id;sensor_type;location;lat;lon;timestamp;P1;durP1;ratioP1;P2;durP2;ratioP2
10633;SDS011;5365;51.640;8.106;2023-01-10T00:00:10;12.03;;;7.60;;
10633;SDS011;5365;51.640;8.106;2023-01-10T00:02:32;13.80;;;8.37;;
10633;SDS011;5365;51.640;8.106;2023-01-10T00:04:54;13.37;;;8.73;;
10633;SDS011;5365;51.640;8.106;2023-01-10T00:07:15;17.40;;;10.50;;
10633;SDS011;5365;51.640;8.106;2023-01-10T00:09:37;16.43;;;11.03;;
10633;SDS011;5365;51.640;8.106;2023-01-10T00:11:59;18.87;;;11.60;;
10633;SDS011;5365;51.640;8.106;2023-01-10T00:14:39;17.73;;;10.40;;
10633;SDS011;5365;51.640;8.106;2023-01-10T00:17:01;18.13;;;10.53;;
10633;SDS011;5365;51.640;8.106;2023-01-10T00:19:23;20.73;;;10.43;;
10633;SDS011;5365;51.640;8.106;2023-01-10T00:21:45;17.20;;;10.70;;
10633;SDS011;5365;51.640;8.106;2023-01-10T00:24:07;20.07;;;10.67;;
10633;SDS011;5365;51.640;8.106;2023-01-10T00:26:41;24.77;;;10.60;;
10633;SDS011;5365;51.640;8.106;2023-01-10T00:29:04;21.50;;;9.53;;
10633;SDS011;5365;51.640;8.106;2023-01-10T00:31:28;20.43;;;9.90;;
10633;SDS011;5365;51.640;8.106;2023-01-10T00:33:49;20.93;;;10.40;;
10633;SDS011;5365;51.640;8.106;2023-01-10T00:36:11;19.93;;;10.00;;
10633;SDS011;5365;51.640;8.106;2023-01-10T00:38:33;23.43;;;10.27;;
10633;SDS011;5365;51.640;8.106;2023-01-10T00:40:56;21.97;;;11.07;;
10633;SDS011;5365;51.640;8.106;2023-01-10T00:43:18;20.73;;;10.23;;
10633;SDS011;5365;51.640;8.106;2023-01-10T00:45:58;22.03;;;9.90;;
10633;SDS011;5365;51.640;8.106;2023-01-10T00:48:20;22.27;;;9.03;;
10633;SDS011;5365;51.640;8.106;2023-01-10T00:50:42;19.57;;;9.80;;
10633;SDS011;5365;51.640;8.106;2023-01-10T00:53:03;20.13;;;9.90;;
10633;SDS011;5365;51.640;8.106;2023-01-10T00:55:25;19.13;;;9.53;;
10633;SDS011;5365;51.640;8.106;2023-01-10T00:57:47;23.07;;;8.90;;
10633;SDS011;5365;51.640;8.106;2023-01-10T01:00:09;16.60;;;8.80;;
10633;SDS011;5365;51.640;8.106;2023-01-10T01:02:32;17.13;;;8.93;;
10633;SDS011;5365;51.640;8.106;2023-01-10T01:04:54;18.97;;;9.13;;
10633;SDS011;5365;51.640;8.106;2023-01-10T01:07:15;15.33;;;8.33;;
10633;SDS011;5365;51.640;8.106;2023-01-10T01:09:37;18.73;;;8.47;;
10633;SDS011;5365;51.640;8.106;2023-01-10T01:12:19;19.33;;;8.83;;
10633;SDS011;5365;51.640;8.106;2023-01-10T01:14:41;21.73;;;9.30;;
10633;SDS011;5365;51.640;8.106;2023-01-10T01:17:02;15.97;;;8.27;;
10633;SDS011;5365;51.640;8.106;2023-01-10T01:19:24;18.97;;;8.70;;
10633;SDS011;5365;51.640;8.106;2023-01-10T01:21:46;17.87;;;8.43;;
10633;SDS011;5365;51.640;8.106;2023-01-10T01:24:08;12.97;;;7.67;;
10633;SDS011;5365;51.640;8.106;2023-01-10T01:26:30;21.13;;;7.90;;
10633;SDS011;5365;51.640;8.106;2023-01-10T01:28:52;16.87;;;8.37;;
10633;SDS011;5365;51.640;8.106;2023-01-10T01:31:14;21.03;;;8.70;;
10633;SDS011;5365;51.640;8.106;2023-01-10T01:33:35;15.63;;;7.80;;
10633;SDS011;5365;51.640;8.106;2023-01-10T01:35:57;13.27;;;7.33;;
10633;SDS011;5365;51.640;8.106;2023-01-10T01:38:19;15.07;;;7.57;;
10633;SDS011;5365;51.640;8.106;2023-01-10T01:40:41;14.70;;;7.33;;
10633;SDS011;5365;51.640;8.106;2023-01-10T01:43:03;24.50;;;7.37;;
10633;SDS011;5365;51.640;8.106;2023-01-10T01:47:57;13.30;;;6.83;;
10633;SDS011;5365;51.640;8.106;2023-01-10T01:53:31;16.77;;;7.70;;
10633;SDS011;5365;51.640;8.106;2023-01-10T01:55:53;15.17;;;7.83;;
10633;SDS011;5365;51.640;8.106;2023-01-10T01:58:18;14.57;;;7.80;;
10633;SDS011;5365;51.640;8.106;2023-01-10T02:00:42;14.03;;;7.37;;
10633;SDS011;5365;51.640;8.106;2023-01-10T02:03:04;16.17;;;7.17;;
10633;SDS011;5365;51.640;8.106;2023-01-10T02:05:26;9.27;;;6.77;;
10633;SDS011;5365;51.640;8.106;2023-01-10T02:07:49;15.37;;;7.90;;
10633;SDS011;5365;51.640;8.106;2023-01-10T02:13:04;15.83;;;6.67;;
10633;SDS011;5365;51.640;8.106;2023-01-10T02:15:26;19.37;;;7.10;;
10633;SDS011;5365;51.640;8.106;2023-01-10T02:17:48;13.73;;;7.23;;
10633;SDS011;5365;51.640;8.106;2023-01-10T02:20:12;16.03;;;8.23;;
10633;SDS011;5365;51.640;8.106;2023-01-10T02:33:33;12.07;;;6.90;;
10633;SDS011;5365;51.640;8.106;2023-01-10T02:38:45;15.17;;;7.10;;
10633;SDS011;5365;51.640;8.106;2023-01-10T02:41:48;16.97;;;9.53;;
10633;SDS011;5365;51.640;8.106;2023-01-10T02:46:42;11.77;;;6.13;;
10633;SDS011;5365;51.640;8.106;2023-01-10T02:49:05;11.53;;;5.70;;
10633;SDS011;5365;51.640;8.106;2023-01-10T02:51:28;10.87;;;6.30;;
10633;SDS011;5365;51.640;8.106;2023-01-10T03:01:51;15.53;;;6.87;;
10633;SDS011;5365;51.640;8.106;2023-01-10T03:07:13;11.50;;;6.13;;
10633;SDS011;5365;51.640;8.106;2023-01-10T03:15:07;12.87;;;5.40;;
10633;SDS011;5365;51.640;8.106;2023-01-10T03:17:29;13.47;;;5.33;;
10633;SDS011;5365;51.640;8.106;2023-01-10T03:19:53;12.70;;;5.10;;
10633;SDS011;5365;51.640;8.106;2023-01-10T03:22:17;10.70;;;4.63;;
10633;SDS011;5365;51.640;8.106;2023-01-10T03:24:40;10.33;;;4.90;;
10633;SDS011;5365;51.640;8.106;2023-01-10T03:27:08;12.93;;;4.87;;
10633;SDS011;5365;51.640;8.106;2023-01-10T03:29:36;10.13;;;4.10;;
10633;SDS011;5365;51.640;8.106;2023-01-10T03:32:03;12.93;;;4.40;;
10633;SDS011;5365;51.640;8.106;2023-01-10T03:34:26;9.57;;;4.30;;
10633;SDS011;5365;51.640;8.106;2023-01-10T03:36:53;11.97;;;4.50;;
10633;SDS011;5365;51.640;8.106;2023-01-10T03:39:38;13.10;;;4.17;;
10633;SDS011;5365;51.640;8.106;2023-01-10T03:42:45;8.23;;;4.00;;
10633;SDS011;5365;51.640;8.106;2023-01-10T03:45:36;10.60;;;4.10;;
10633;SDS011;5365;51.640;8.106;2023-01-10T03:48:02;11.60;;;4.00;;
10633;SDS011;5365;51.640;8.106;2023-01-10T03:50:25;7.43;;;3.60;;
10633;SDS011;5365;51.640;8.106;2023-01-10T03:52:48;9.80;;;3.97;;
10633;SDS011;5365;51.640;8.106;2023-01-10T03:55:11;11.67;;;3.87;;
10633;SDS011;5365;51.640;8.106;2023-01-10T03:57:34;11.13;;;3.93;;
10633;SDS011;5365;51.640;8.106;2023-01-10T03:59:56;9.00;;;3.73;;
10633;SDS011;5365;51.640;8.106;2023-01-10T04:02:19;8.37;;;3.73;;
10633;SDS011;5365;51.640;8.106;2023-01-10T04:04:41;10.43;;;4.33;;
10633;SDS011;5365;51.640;8.106;2023-01-10T04:07:03;10.73;;;3.50;;
10633;SDS011;5365;51.640;8.106;2023-01-10T04:09:25;7.23;;;3.37;;
10633;SDS011;5365;51.640;8.106;2023-01-10T04:11:47;9.17;;;3.30;;
10633;SDS011;5365;51.640;8.106;2023-01-10T04:14:09;5.30;;;3.13;;
10633;SDS011;5365;51.640;8.106;2023-01-10T04:16:30;13.07;;;3.83;;
10633;SDS011;5365;51.640;8.106;2023-01-10T04:18:52;6.27;;;3.10;;
10633;SDS011;5365;51.640;8.106;2023-01-10T04:21:14;10.53;;;3.00;;
10633;SDS011;5365;51.640;8.106;2023-01-10T04:23:36;7.23;;;3.13;;
10633;SDS011;5365;51.640;8.106;2023-01-10T04:25:58;10.50;;;2.90;;
10633;SDS011;5365;51.640;8.106;2023-01-10T04:28:19;9.30;;;3.47;;
10633;SDS011;5365;51.640;8.106;2023-01-10T04:30:43;7.97;;;2.83;;
10633;SDS011;5365;51.640;8.106;2023-01-10T04:33:04;6.70;;;2.93;;
10633;SDS011;5365;51.640;8.106;2023-01-10T04:35:27;7.33;;;3.00;;
10633;SDS011;5365;51.640;8.106;2023-01-10T04:37:49;5.97;;;3.00;;
10633;SDS011;5365;51.640;8.106;2023-01-10T04:40:11;4.50;;;2.37;;
10633;SDS011;5365;51.640;8.106;2023-01-10T04:42:33;6.10;;;2.73;;
10633;SDS011;5365;51.640;8.106;2023-01-10T04:44:55;7.03;;;3.03;;
10633;SDS011;5365;51.640;8.106;2023-01-10T04:47:16;7.53;;;3.00;;
10633;SDS011;5365;51.640;8.106;2023-01-10T04:49:38;6.23;;;2.67;;
10633;SDS011;5365;51.640;8.106;2023-01-10T04:52:00;10.63;;;3.30;;
10633;SDS011;5365;51.640;8.106;2023-01-10T04:54:22;6.57;;;3.20;;
10633;SDS011;5365;51.640;8.106;2023-01-10T04:56:43;8.50;;;3.20;;
10633;SDS011;5365;51.640;8.106;2023-01-10T04:59:05;9.40;;;3.07;;
10633;SDS011;5365;51.640;8.106;2023-01-10T05:01:27;9.60;;;4.30;;
10633;SDS011;5365;51.640;8.106;2023-01-10T05:03:49;8.70;;;3.80;;
10633;SDS011;5365;51.640;8.106;2023-01-10T05:06:12;6.87;;;3.57;;
10633;SDS011;5365;51.640;8.106;2023-01-10T05:08:34;6.33;;;3.47;;
10633;SDS011;5365;51.640;8.106;2023-01-10T05:10:56;8.90;;;3.50;;
10633;SDS011;5365;51.640;8.106;2023-01-10T05:13:18;9.43;;;3.60;;
10633;SDS011;5365;51.640;8.106;2023-01-10T05:15:39;10.57;;;4.30;;
10633;SDS011;5365;51.640;8.106;2023-01-10T05:18:01;7.60;;;3.90;;
10633;SDS011;5365;51.640;8.106;2023-01-10T05:20:23;9.03;;;5.20;;
10633;SDS011;5365;51.640;8.106;2023-01-10T05:22:44;13.20;;;4.57;;
10633;SDS011;5365;51.640;8.106;2023-01-10T05:25:06;8.37;;;4.73;;
10633;SDS011;5365;51.640;8.106;2023-01-10T05:27:28;9.67;;;4.90;;
10633;SDS011;5365;51.640;8.106;2023-01-10T05:29:50;10.87;;;4.57;;
10633;SDS011;5365;51.640;8.106;2023-01-10T05:32:12;10.77;;;4.67;;
10633;SDS011;5365;51.640;8.106;2023-01-10T05:34:33;9.77;;;4.70;;
10633;SDS011;5365;51.640;8.106;2023-01-10T05:36:55;12.60;;;4.60;;
10633;SDS011;5365;51.640;8.106;2023-01-10T05:39:17;14.17;;;4.90;;
10633;SDS011;5365;51.640;8.106;2023-01-10T05:41:39;7.97;;;4.10;;
10633;SDS011;5365;51.640;8.106;2023-01-10T05:44:01;6.80;;;4.40;;
10633;SDS011;5365;51.640;8.106;2023-01-10T05:46:22;8.83;;;5.27;;
10633;SDS011;5365;51.640;8.106;2023-01-10T05:48:44;12.67;;;5.73;;
10633;SDS011;5365;51.640;8.106;2023-01-10T05:51:06;9.67;;;5.03;;
10633;SDS011;5365;51.640;8.106;2023-01-10T05:53:28;8.00;;;5.23;;
10633;SDS011;5365;51.640;8.106;2023-01-10T05:55:53;12.10;;;6.80;;
10633;SDS011;5365;51.640;8.106;2023-01-10T05:58:18;9.80;;;4.60;;
10633;SDS011;5365;51.640;8.106;2023-01-10T06:00:40;9.27;;;4.90;;
10633;SDS011;5365;51.640;8.106;2023-01-10T06:03:02;12.13;;;5.03;;
10633;SDS011;5365;51.640;8.106;2023-01-10T06:05:24;9.50;;;4.67;;
10633;SDS011;5365;51.640;8.106;2023-01-10T06:07:45;8.70;;;4.47;;
10633;SDS011;5365;51.640;8.106;2023-01-10T06:10:07;6.83;;;4.67;;
10633;SDS011;5365;51.640;8.106;2023-01-10T06:12:29;12.13;;;5.33;;
10633;SDS011;5365;51.640;8.106;2023-01-10T06:14:51;9.87;;;4.97;;
10633;SDS011;5365;51.640;8.106;2023-01-10T06:17:13;8.57;;;4.40;;
10633;SDS011;5365;51.640;8.106;2023-01-10T06:19:34;8.97;;;4.37;;
10633;SDS011;5365;51.640;8.106;2023-01-10T06:21:56;8.70;;;4.43;;
10633;SDS011;5365;51.640;8.106;2023-01-10T06:24:18;7.07;;;4.40;;
10633;SDS011;5365;51.640;8.106;2023-01-10T06:26:39;10.73;;;4.20;;
10633;SDS011;5365;51.640;8.106;2023-01-10T06:29:01;7.60;;;4.43;;
10633;SDS011;5365;51.640;8.106;2023-01-10T06:31:23;8.60;;;4.60;;
10633;SDS011;5365;51.640;8.106;2023-01-10T06:33:45;8.30;;;4.60;;
10633;SDS011;5365;51.640;8.106;2023-01-10T06:36:10;11.07;;;5.63;;
10633;SDS011;5365;51.640;8.106;2023-01-10T06:38:32;7.70;;;4.40;;
10633;SDS011;5365;51.640;8.106;2023-01-10T06:40:54;10.57;;;4.63;;
10633;SDS011;5365;51.640;8.106;2023-01-10T06:43:16;9.33;;;4.50;;
10633;SDS011;5365;51.640;8.106;2023-01-10T06:45:38;13.83;;;5.13;;
10633;SDS011;5365;51.640;8.106;2023-01-10T06:48:00;8.60;;;4.33;;
10633;SDS011;5365;51.640;8.106;2023-01-10T06:50:21;10.03;;;4.40;;
10633;SDS011;5365;51.640;8.106;2023-01-10T06:52:43;8.27;;;3.87;;
10633;SDS011;5365;51.640;8.106;2023-01-10T06:55:05;10.47;;;4.43;;
10633;SDS011;5365;51.640;8.106;2023-01-10T06:57:27;8.47;;;4.47;;
10633;SDS011;5365;51.640;8.106;2023-01-10T06:59:49;9.77;;;4.30;;
10633;SDS011;5365;51.640;8.106;2023-01-10T07:02:11;7.80;;;4.20;;
10633;SDS011;5365;51.640;8.106;2023-01-10T07:04:33;8.93;;;4.17;;
10633;SDS011;5365;51.640;8.106;2023-01-10T07:06:54;14.90;;;5.00;;
10633;SDS011;5365;51.640;8.106;2023-01-10T07:09:16;11.23;;;4.73;;
10633;SDS011;5365;51.640;8.106;2023-01-10T07:11:38;15.10;;;5.10;;
10633;SDS011;5365;51.640;8.106;2023-01-10T07:14:00;10.63;;;5.40;;
10633;SDS011;5365;51.640;8.106;2023-01-10T07:16:22;7.40;;;4.30;;
10633;SDS011;5365;51.640;8.106;2023-01-10T07:18:44;12.73;;;4.17;;
10633;SDS011;5365;51.640;8.106;2023-01-10T07:21:06;9.43;;;4.30;;
10633;SDS011;5365;51.640;8.106;2023-01-10T07:23:27;10.53;;;4.00;;
10633;SDS011;5365;51.640;8.106;2023-01-10T07:25:51;10.17;;;4.27;;
10633;SDS011;5365;51.640;8.106;2023-01-10T07:28:13;14.73;;;4.60;;
10633;SDS011;5365;51.640;8.106;2023-01-10T07:30:35;7.87;;;5.07;;
10633;SDS011;5365;51.640;8.106;2023-01-10T07:32:58;10.17;;;4.07;;
10633;SDS011;5365;51.640;8.106;2023-01-10T07:35:21;10.00;;;4.20;;
10633;SDS011;5365;51.640;8.106;2023-01-10T07:37:44;12.83;;;4.80;;
10633;SDS011;5365;51.640;8.106;2023-01-10T07:40:06;7.60;;;4.10;;
10633;SDS011;5365;51.640;8.106;2023-01-10T07:42:28;9.10;;;4.67;;
10633;SDS011;5365;51.640;8.106;2023-01-10T07:44:50;13.43;;;5.23;;
10633;SDS011;5365;51.640;8.106;2023-01-10T07:47:11;11.03;;;4.83;;
10633;SDS011;5365;51.640;8.106;2023-01-10T07:49:33;17.57;;;6.13;;
10633;SDS011;5365;51.640;8.106;2023-01-10T07:51:55;10.30;;;4.60;;
10633;SDS011;5365;51.640;8.106;2023-01-10T07:54:17;15.37;;;6.67;;
10633;SDS011;5365;51.640;8.106;2023-01-10T07:56:38;15.33;;;5.33;;
10633;SDS011;5365;51.640;8.106;2023-01-10T07:59:02;10.17;;;5.23;;
10633;SDS011;5365;51.640;8.106;2023-01-10T08:01:24;11.00;;;5.70;;
10633;SDS011;5365;51.640;8.106;2023-01-10T08:03:46;14.50;;;6.23;;
10633;SDS011;5365;51.640;8.106;2023-01-10T08:06:08;12.33;;;5.77;;
10633;SDS011;5365;51.640;8.106;2023-01-10T08:08:32;15.80;;;6.10;;
10633;SDS011;5365;51.640;8.106;2023-01-10T08:10:55;14.13;;;6.93;;
10633;SDS011;5365;51.640;8.106;2023-01-10T08:13:17;9.20;;;5.27;;
10633;SDS011;5365;51.640;8.106;2023-01-10T08:15:39;19.37;;;6.47;;
10633;SDS011;5365;51.640;8.106;2023-01-10T08:18:01;17.67;;;6.50;;
10633;SDS011;5365;51.640;8.106;2023-01-10T08:20:25;11.40;;;6.43;;
10633;SDS011;5365;51.640;8.106;2023-01-10T08:22:47;12.53;;;6.10;;
10633;SDS011;5365;51.640;8.106;2023-01-10T08:25:09;15.37;;;6.00;;
10633;SDS011;5365;51.640;8.106;2023-01-10T08:27:30;12.27;;;6.40;;
10633;SDS011;5365;51.640;8.106;2023-01-10T08:29:52;16.20;;;6.73;;
10633;SDS011;5365;51.640;8.106;2023-01-10T08:32:14;14.10;;;5.53;;
10633;SDS011;5365;51.640;8.106;2023-01-10T08:34:36;13.97;;;6.40;;
10633;SDS011;5365;51.640;8.106;2023-01-10T08:36:57;17.90;;;6.40;;
10633;SDS011;5365;51.640;8.106;2023-01-10T08:39:20;14.17;;;6.13;;
10633;SDS011;5365;51.640;8.106;2023-01-10T08:41:47;25.63;;;7.23;;
10633;SDS011;5365;51.640;8.106;2023-01-10T08:44:09;20.63;;;6.77;;
10633;SDS011;5365;51.640;8.106;2023-01-10T08:46:33;16.00;;;6.40;;
10633;SDS011;5365;51.640;8.106;2023-01-10T08:48:55;19.23;;;6.80;;
10633;SDS011;5365;51.640;8.106;2023-01-10T08:51:17;17.10;;;6.83;;
10633;SDS011;5365;51.640;8.106;2023-01-10T08:53:39;13.27;;;7.10;;
10633;SDS011;5365;51.640;8.106;2023-01-10T08:56:01;19.57;;;6.70;;
10633;SDS011;5365;51.640;8.106;2023-01-10T08:58:25;14.57;;;6.47;;
10633;SDS011;5365;51.640;8.106;2023-01-10T09:00:49;14.67;;;6.57;;
10633;SDS011;5365;51.640;8.106;2023-01-10T09:03:11;13.03;;;6.20;;
10633;SDS011;5365;51.640;8.106;2023-01-10T09:05:33;12.13;;;6.23;;
10633;SDS011;5365;51.640;8.106;2023-01-10T09:07:59;16.33;;;6.93;;
10633;SDS011;5365;51.640;8.106;2023-01-10T09:10:21;12.73;;;6.40;;
10633;SDS011;5365;51.640;8.106;2023-01-10T09:12:43;14.13;;;6.27;;
10633;SDS011;5365;51.640;8.106;2023-01-10T09:15:17;20.43;;;7.00;;
10633;SDS011;5365;51.640;8.106;2023-01-10T09:17:39;16.83;;;5.63;;
10633;SDS011;5365;51.640;8.106;2023-01-10T09:20:00;16.47;;;6.57;;
10633;SDS011;5365;51.640;8.106;2023-01-10T09:22:26;17.27;;;6.50;;
10633;SDS011;5365;51.640;8.106;2023-01-10T09:24:48;16.57;;;5.87;;
10633;SDS011;5365;51.640;8.106;2023-01-10T09:27:10;14.70;;;6.63;;
10633;SDS011;5365;51.640;8.106;2023-01-10T09:29:31;11.60;;;5.77;;
10633;SDS011;5365;51.640;8.106;2023-01-10T09:31:53;14.77;;;6.00;;
10633;SDS011;5365;51.640;8.106;2023-01-10T09:34:15;13.97;;;5.77;;
10633;SDS011;5365;51.640;8.106;2023-01-10T09:36:37;14.50;;;5.37;;
10633;SDS011;5365;51.640;8.106;2023-01-10T09:38:59;16.20;;;5.47;;
10633;SDS011;5365;51.640;8.106;2023-01-10T09:48:51;13.13;;;5.23;;
10633;SDS011;5365;51.640;8.106;2023-01-10T09:53:57;15.77;;;5.37;;
10633;SDS011;5365;51.640;8.106;2023-01-10T09:56:31;15.43;;;5.63;;
10633;SDS011;5365;51.640;8.106;2023-01-10T09:58:54;12.97;;;6.03;;
10633;SDS011;5365;51.640;8.106;2023-01-10T10:01:18;14.20;;;5.33;;
10633;SDS011;5365;51.640;8.106;2023-01-10T10:03:50;12.33;;;4.93;;
10633;SDS011;5365;51.640;8.106;2023-01-10T10:06:14;16.57;;;5.30;;
10633;SDS011;5365;51.640;8.106;2023-01-10T10:08:36;14.57;;;5.50;;
10633;SDS011;5365;51.640;8.106;2023-01-10T10:30:02;13.83;;;5.50;;
10633;SDS011;5365;51.640;8.106;2023-01-10T10:34:57;18.03;;;5.60;;
10633;SDS011;5365;51.640;8.106;2023-01-10T10:37:31;15.63;;;5.50;;
10633;SDS011;5365;51.640;8.106;2023-01-10T10:39:56;10.27;;;4.13;;
10633;SDS011;5365;51.640;8.106;2023-01-10T10:42:21;15.37;;;4.97;;
10633;SDS011;5365;51.640;8.106;2023-01-10T10:44:51;15.73;;;4.73;;
10633;SDS011;5365;51.640;8.106;2023-01-10T10:47:15;13.03;;;5.03;;
10633;SDS011;5365;51.640;8.106;2023-01-10T10:54:45;12.33;;;5.00;;
10633;SDS011;5365;51.640;8.106;2023-01-10T10:57:08;15.23;;;5.20;;
10633;SDS011;5365;51.640;8.106;2023-01-10T10:59:32;12.30;;;4.83;;
10633;SDS011;5365;51.640;8.106;2023-01-10T11:01:54;13.00;;;5.10;;
10633;SDS011;5365;51.640;8.106;2023-01-10T11:04:18;10.00;;;4.37;;
10633;SDS011;5365;51.640;8.106;2023-01-10T11:06:41;16.93;;;4.73;;
10633;SDS011;5365;51.640;8.106;2023-01-10T11:09:09;17.73;;;4.77;;
10633;SDS011;5365;51.640;8.106;2023-01-10T11:11:33;15.50;;;5.20;;
10633;SDS011;5365;51.640;8.106;2023-01-10T11:13:59;12.40;;;4.43;;
10633;SDS011;5365;51.640;8.106;2023-01-10T11:16:33;11.30;;;4.53;;
10633;SDS011;5365;51.640;8.106;2023-01-10T11:21:40;14.13;;;4.43;;
10633;SDS011;5365;51.640;8.106;2023-01-10T11:24:19;10.07;;;3.93;;
10633;SDS011;5365;51.640;8.106;2023-01-10T11:26:44;13.10;;;4.60;;
10633;SDS011;5365;51.640;8.106;2023-01-10T11:29:07;10.83;;;4.27;;
10633;SDS011;5365;51.640;8.106;2023-01-10T11:31:43;11.00;;;3.90;;
10633;SDS011;5365;51.640;8.106;2023-01-10T11:34:18;16.63;;;5.23;;
10633;SDS011;5365;51.640;8.106;2023-01-10T11:37:16;13.90;;;4.83;;
10633;SDS011;5365;51.640;8.106;2023-01-10T11:39:38;11.17;;;4.33;;
10633;SDS011;5365;51.640;8.106;2023-01-10T11:42:17;11.37;;;3.80;;
10633;SDS011;5365;51.640;8.106;2023-01-10T11:44:45;12.93;;;4.30;;
10633;SDS011;5365;51.640;8.106;2023-01-10T11:47:08;12.20;;;4.47;;
10633;SDS011;5365;51.640;8.106;2023-01-10T11:49:33;8.77;;;4.00;;
10633;SDS011;5365;51.640;8.106;2023-01-10T11:51:59;9.63;;;3.70;;
10633;SDS011;5365;51.640;8.106;2023-01-10T11:54:25;12.27;;;3.50;;
10633;SDS011;5365;51.640;8.106;2023-01-10T11:59:19;10.80;;;3.47;;
10633;SDS011;5365;51.640;8.106;2023-01-10T12:04:13;10.03;;;3.47;;
10633;SDS011;5365;51.640;8.106;2023-01-10T12:06:36;10.47;;;3.90;;
10633;SDS011;5365;51.640;8.106;2023-01-10T12:09:07;10.90;;;3.63;;
10633;SDS011;5365;51.640;8.106;2023-01-10T12:11:59;11.03;;;3.23;;
10633;SDS011;5365;51.640;8.106;2023-01-10T12:14:22;10.13;;;3.20;;
10633;SDS011;5365;51.640;8.106;2023-01-10T12:16:56;7.33;;;3.30;;
10633;SDS011;5365;51.640;8.106;2023-01-10T12:19:19;12.70;;;3.53;;
10633;SDS011;5365;51.640;8.106;2023-01-10T12:21:42;9.73;;;3.23;;
10633;SDS011;5365;51.640;8.106;2023-01-10T12:24:50;7.43;;;3.40;;
10633;SDS011;5365;51.640;8.106;2023-01-10T12:26:49;14.13;;;3.30;;
10633;SDS011;5365;51.640;8.106;2023-01-10T12:29:14;11.67;;;3.33;;
10633;SDS011;5365;51.640;8.106;2023-01-10T12:31:38;9.17;;;3.27;;
10633;SDS011;5365;51.640;8.106;2023-01-10T12:39:21;13.20;;;3.37;;
10633;SDS011;5365;51.640;8.106;2023-01-10T12:41:50;8.87;;;2.97;;
10633;SDS011;5365;51.640;8.106;2023-01-10T12:44:42;10.23;;;3.47;;
10633;SDS011;5365;51.640;8.106;2023-01-10T12:49:53;7.07;;;2.63;;
10633;SDS011;5365;51.640;8.106;2023-01-10T12:52:38;12.17;;;2.77;;
10633;SDS011;5365;51.640;8.106;2023-01-10T12:55:06;9.30;;;3.37;;
10633;SDS011;5365;51.640;8.106;2023-01-10T12:57:32;7.77;;;2.90;;
10633;SDS011;5365;51.640;8.106;2023-01-10T12:59:58;11.77;;;2.87;;
10633;SDS011;5365;51.640;8.106;2023-01-10T13:02:23;7.60;;;2.60;;
10633;SDS011;5365;51.640;8.106;2023-01-10T13:04:49;11.40;;;2.87;;
10633;SDS011;5365;51.640;8.106;2023-01-10T13:07:13;11.17;;;2.60;;
10633;SDS011;5365;51.640;8.106;2023-01-10T13:09:36;9.70;;;2.70;;
10633;SDS011;5365;51.640;8.106;2023-01-10T13:12:19;9.33;;;2.50;;
10633;SDS011;5365;51.640;8.106;2023-01-10T13:14:50;6.03;;;2.40;;
10633;SDS011;5365;51.640;8.106;2023-01-10T13:22:49;7.27;;;2.60;;
10633;SDS011;5365;51.640;8.106;2023-01-10T13:28:05;11.23;;;2.73;;
10633;SDS011;5365;51.640;8.106;2023-01-10T13:30:40;8.67;;;3.10;;
10633;SDS011;5365;51.640;8.106;2023-01-10T13:33:06;8.83;;;2.53;;
10633;SDS011;5365;51.640;8.106;2023-01-10T13:35:39;10.53;;;2.30;;
10633;SDS011;5365;51.640;8.106;2023-01-10T13:38:02;10.70;;;2.87;;
10633;SDS011;5365;51.640;8.106;2023-01-10T13:40:25;10.97;;;3.03;;
10633;SDS011;5365;51.640;8.106;2023-01-10T13:43:23;6.33;;;2.30;;
10633;SDS011;5365;51.640;8.106;2023-01-10T13:46:31;10.20;;;2.77;;
10633;SDS011;5365;51.640;8.106;2023-01-10T13:48:38;8.00;;;2.50;;
10633;SDS011;5365;51.640;8.106;2023-01-10T13:51:12;11.20;;;2.20;;
10633;SDS011;5365;51.640;8.106;2023-01-10T13:53:43;6.80;;;2.40;;
10633;SDS011;5365;51.640;8.106;2023-01-10T13:58:56;7.73;;;2.60;;
10633;SDS011;5365;51.640;8.106;2023-01-10T14:01:37;7.87;;;2.50;;
10633;SDS011;5365;51.640;8.106;2023-01-10T14:04:24;11.37;;;2.87;;
10633;SDS011;5365;51.640;8.106;2023-01-10T14:06:55;5.83;;;2.30;;
10633;SDS011;5365;51.640;8.106;2023-01-10T14:14:12;7.90;;;2.33;;
10633;SDS011;5365;51.640;8.106;2023-01-10T14:19:43;8.73;;;2.37;;
10633;SDS011;5365;51.640;8.106;2023-01-10T14:22:17;6.60;;;3.03;;
10633;SDS011;5365;51.640;8.106;2023-01-10T14:24:44;8.43;;;2.33;;
10633;SDS011;5365;51.640;8.106;2023-01-10T14:27:13;9.90;;;2.70;;
10633;SDS011;5365;51.640;8.106;2023-01-10T14:29:35;6.77;;;2.20;;
10633;SDS011;5365;51.640;8.106;2023-01-10T14:31:58;7.73;;;2.13;;
10633;SDS011;5365;51.640;8.106;2023-01-10T14:34:25;7.60;;;2.20;;
10633;SDS011;5365;51.640;8.106;2023-01-10T14:37:00;10.10;;;2.30;;
10633;SDS011;5365;51.640;8.106;2023-01-10T14:39:24;9.23;;;2.50;;
10633;SDS011;5365;51.640;8.106;2023-01-10T14:41:51;5.30;;;2.17;;
10633;SDS011;5365;51.640;8.106;2023-01-10T14:44:15;4.93;;;2.10;;
10633;SDS011;5365;51.640;8.106;2023-01-10T14:46:46;6.83;;;2.33;;
10633;SDS011;5365;51.640;8.106;2023-01-10T14:52:11;14.43;;;3.13;;
10633;SDS011;5365;51.640;8.106;2023-01-10T14:54:41;7.80;;;2.37;;
10633;SDS011;5365;51.640;8.106;2023-01-10T14:57:03;6.37;;;2.07;;
10633;SDS011;5365;51.640;8.106;2023-01-10T14:59:31;5.03;;;2.33;;
10633;SDS011;5365;51.640;8.106;2023-01-10T15:01:59;10.00;;;1.97;;
10633;SDS011;5365;51.640;8.106;2023-01-10T15:04:23;9.07;;;2.57;;
10633;SDS011;5365;51.640;8.106;2023-01-10T15:06:50;4.90;;;2.00;;
10633;SDS011;5365;51.640;8.106;2023-01-10T15:09:25;5.83;;;2.00;;
10633;SDS011;5365;51.640;8.106;2023-01-10T15:11:48;8.30;;;2.30;;
10633;SDS011;5365;51.640;8.106;2023-01-10T15:14:11;9.90;;;2.30;;
10633;SDS011;5365;51.640;8.106;2023-01-10T15:16:37;9.47;;;2.10;;
10633;SDS011;5365;51.640;8.106;2023-01-10T15:19:01;5.23;;;1.90;;
10633;SDS011;5365;51.640;8.106;2023-01-10T15:21:23;7.43;;;2.10;;
10633;SDS011;5365;51.640;8.106;2023-01-10T15:23:46;6.87;;;2.40;;
10633;SDS011;5365;51.640;8.106;2023-01-10T15:26:18;6.57;;;2.50;;
10633;SDS011;5365;51.640;8.106;2023-01-10T15:28:42;6.93;;;2.33;;
10633;SDS011;5365;51.640;8.106;2023-01-10T15:31:08;7.97;;;2.33;;
10633;SDS011;5365;51.640;8.106;2023-01-10T15:33:32;11.03;;;2.50;;
10633;SDS011;5365;51.640;8.106;2023-01-10T15:35:56;8.83;;;2.13;;
10633;SDS011;5365;51.640;8.106;2023-01-10T15:38:19;5.60;;;2.60;;
10633;SDS011;5365;51.640;8.106;2023-01-10T15:40:44;5.20;;;1.90;;
10633;SDS011;5365;51.640;8.106;2023-01-10T15:45:37;8.73;;;2.83;;
10633;SDS011;5365;51.640;8.106;2023-01-10T15:48:00;6.33;;;2.60;;
10633;SDS011;5365;51.640;8.106;2023-01-10T15:50:26;14.07;;;2.70;;
10633;SDS011;5365;51.640;8.106;2023-01-10T15:53:02;8.77;;;2.53;;
10633;SDS011;5365;51.640;8.106;2023-01-10T16:00:51;7.93;;;2.27;;
10633;SDS011;5365;51.640;8.106;2023-01-10T16:03:19;9.43;;;2.67;;
10633;SDS011;5365;51.640;8.106;2023-01-10T16:05:54;7.60;;;2.03;;
10633;SDS011;5365;51.640;8.106;2023-01-10T16:08:20;6.60;;;2.50;;
10633;SDS011;5365;51.640;8.106;2023-01-10T16:10:44;7.47;;;2.17;;
10633;SDS011;5365;51.640;8.106;2023-01-10T16:13:14;6.70;;;2.27;;
10633;SDS011;5365;51.640;8.106;2023-01-10T16:15:49;6.10;;;2.50;;
10633;SDS011;5365;51.640;8.106;2023-01-10T16:18:11;7.73;;;2.50;;
10633;SDS011;5365;51.640;8.106;2023-01-10T16:20:34;6.40;;;2.30;;
10633;SDS011;5365;51.640;8.106;2023-01-10T16:22:57;6.37;;;2.13;;
10633;SDS011;5365;51.640;8.106;2023-01-10T16:25:27;7.33;;;2.40;;
10633;SDS011;5365;51.640;8.106;2023-01-10T16:27:52;7.63;;;2.20;;
10633;SDS011;5365;51.640;8.106;2023-01-10T16:30:21;6.13;;;1.97;;
10633;SDS011;5365;51.640;8.106;2023-01-10T16:32:43;9.87;;;2.33;;
10633;SDS011;5365;51.640;8.106;2023-01-10T16:35:05;7.07;;;2.13;;
10633;SDS011;5365;51.640;8.106;2023-01-10T16:37:27;9.17;;;2.97;;
10633;SDS011;5365;51.640;8.106;2023-01-10T16:39:49;5.20;;;2.20;;
10633;SDS011;5365;51.640;8.106;2023-01-10T16:42:12;6.87;;;2.63;;